Time;durP1;ratioP1;P1;durP2;ratioP2;P2;SDS_P1;SDS_P2;PMS_P1;PMS_P2;Temp;Humidity;BMP_temperature;BMP_pressure;BME280_temperature;BME280_humidity;BME280_pressure;Samples;Min_cycle;Max_cycle;Signal;HPM_P1;HPM_P2
2021/06/18 00:02:18;;;;;;;;;;;;;;;25.74;45.64;100601.81;5057883;28;1003;-38
2021/06/18 00:04:43;;;;;;;;;;;;;;;25.80;45.63;100601.13;5058179;28;780;-33
2021/06/18 00:07:08;;;;;;;;;;;;;;;25.82;45.60;100597.41;5058004;28;1902;-39
2021/06/18 00:09:34;;;;;;;;;;;;;;;25.81;45.70;100601.94;5057965;28;811;-38
2021/06/18 00:11:59;;;;;;;;;;;;;;;25.88;45.13;100608.31;5058003;28;1040;-36
2021/06/18 00:14:24;;;;;;;;;;;;;;;25.82;45.48;100603.63;5058216;28;755;-38
2021/06/18 00:16:49;;;;;;;;;;;;;;;25.84;45.65;100598.88;5057098;28;1056;-38
2021/06/18 00:19:15;;;;;;;;;;;;;;;25.85;45.49;100608.66;5057879;28;882;-38
2021/06/18 00:21:40;;;;;;;;;;;;;;;25.94;45.45;100606.78;5057994;28;878;-38
2021/06/18 00:24:06;;;;;;;;;;;;;;;25.88;45.66;100605.63;5057788;28;825;-34
2021/06/18 00:26:31;;;;;;;;;;;;;;;25.88;45.87;100610.16;5057389;28;1910;-38
2021/06/18 00:28:56;;;;;;;;;;;;;;;25.91;45.94;100607.09;5057902;28;744;-38
2021/06/18 00:31:22;;;;;;;;;;;;;;;25.90;46.10;100605.44;5057599;28;943;-34
2021/06/18 00:33:47;;;;;;;;;;;;;;;25.97;45.46;100601.03;5057325;28;768;-37
2021/06/18 00:36:12;;;;;;;;;;;;;;;25.95;45.54;100607.59;5057733;28;803;-34
2021/06/18 00:38:37;;;;;;;;;;;;;;;25.92;45.72;100598.84;5057555;28;795;-38
2021/06/18 00:41:03;;;;;;;;;;;;;;;25.98;45.96;100597.28;5057287;28;803;-40
2021/06/18 00:43:28;;;;;;;;;;;;;;;25.98;45.41;100594.59;5057701;28;791;-39
2021/06/18 00:45:54;;;;;;;;;;;;;;;25.98;45.75;100591.91;5057365;28;1898;-40
2021/06/18 00:48:20;;;;;;;;;;;;;;;25.93;46.07;100580.81;5056600;28;998;-37
2021/06/18 00:50:45;;;;;;;;;;;;;;;25.96;46.02;100585.03;5057561;28;822;-34
2021/06/18 00:53:12;;;;;;;;;;;;;;;25.99;46.24;100580.09;5057385;28;811;-34
2021/06/18 00:55:37;;;;;;;;;;;;;;;26.01;45.85;100578.06;5056018;28;831;-39
2021/06/18 00:58:03;;;;;;;;;;;;;;;25.98;46.11;100582.97;5057258;28;822;-39
2021/06/18 01:00:28;;;;;;;;;;;;;;;25.97;46.43;100581.31;5057180;28;790;-39
2021/06/18 01:02:53;;;;;;;;;;;;;;;26.01;46.29;100582.59;5056520;28;1002;-34
2021/06/18 01:05:19;;;;;;;;;;;;;;;25.99;46.19;100588.19;5057234;28;774;-39
2021/06/18 01:07:47;;;;;;;;;;;;;;;26.02;46.30;100589.69;5056776;28;1902;-38
2021/06/18 01:10:31;;;;;;;;;;;;;;;26.02;46.13;100595.94;5056815;28;810;-39
2021/06/18 01:13:05;;;;;;;;;;;;;;;26.02;46.10;100595.09;5057524;28;1111;-39
2021/06/18 01:15:36;;;;;;;;;;;;;;;26.00;46.42;100594.41;5056488;28;506;-39
2021/06/18 01:18:02;;;;;;;;;;;;;;;26.05;45.94;100594.72;5054497;28;1112;-35
2021/06/18 01:20:37;;;;;;;;;;;;;;;26.09;45.80;100589.81;5056281;28;761;-40
2021/06/18 01:23:02;;;;;;;;;;;;;;;26.07;46.07;100581.06;5056712;28;779;-40
2021/06/18 01:25:46;;;;;;;;;;;;;;;26.15;46.02;100584.53;5055295;28;727;-39
2021/06/18 01:28:21;;;;;;;;;;;;;;;26.08;45.93;100570.09;5054933;28;1907;-34
2021/06/18 01:30:46;;;;;;;;;;;;;;;26.08;46.61;100574.63;5056284;28;776;-34
2021/06/18 01:33:13;;;;;;;;;;;;;;;26.10;46.09;100575.31;5054976;28;948;-40
2021/06/18 01:35:42;;;;;;;;;;;;;;;26.12;46.18;100578.66;5055010;28;819;-39
2021/06/18 01:38:08;;;;;;;;;;;;;;;26.09;46.65;100570.94;5056313;28;733;-33
2021/06/18 01:40:33;;;;;;;;;;;;;;;26.11;46.21;100568.91;5056697;28;772;-39
2021/06/18 01:42:58;;;;;;;;;;;;;;;26.04;46.46;100560.72;5056539;28;811;-40
2021/06/18 01:45:26;;;;;;;;;;;;;;;26.01;46.76;100563.75;5055322;28;822;-40
2021/06/18 01:47:51;;;;;;;;;;;;;;;26.01;46.83;100561.03;5054391;28;1959;-38
2021/06/18 01:50:18;;;;;;;;;;;;;;;26.11;46.76;100560.84;5054442;28;1533;-35
2021/06/18 01:52:48;;;;;;;;;;;;;;;26.07;46.51;100557.66;5055309;28;764;-37
2021/06/18 01:55:13;;;;;;;;;;;;;;;26.11;46.82;100558.94;5056160;28;811;-38
2021/06/18 01:57:39;;;;;;;;;;;;;;;26.09;46.83;100555.59;5056174;28;859;-34
2021/06/18 02:00:05;;;;;;;;;;;;;;;26.12;46.79;100539.09;5056565;28;812;-38
2021/06/18 02:02:30;;;;;;;;;;;;;;;26.05;47.02;100543.50;5055702;28;962;-38
2021/06/18 02:04:56;;;;;;;;;;;;;;;26.07;46.78;100546.88;5056151;28;791;-38
2021/06/18 02:07:22;;;;;;;;;;;;;;;26.06;47.19;100550.56;5055132;28;1917;-38
2021/06/18 02:09:47;;;;;;;;;;;;;;;26.08;47.04;100563.84;5054617;28;525;-34
2021/06/18 02:12:12;;;;;;;;;;;;;;;26.12;46.76;100565.19;5056147;28;1088;-33
2021/06/18 02:14:38;;;;;;;;;;;;;;;26.08;47.21;100564.72;5054739;28;1373;-39
2021/06/18 02:17:03;;;;;;;;;;;;;;;26.13;47.20;100575.78;5055501;28;1082;-38
2021/06/18 02:19:29;;;;;;;;;;;;;;;26.12;47.23;100575.97;5054759;28;756;-38
2021/06/18 02:21:54;;;;;;;;;;;;;;;26.05;47.31;100565.06;5056547;28;747;-38
2021/06/18 02:24:20;;;;;;;;;;;;;;;26.00;47.74;100562.06;5055766;28;736;-38
2021/06/18 02:26:46;;;;;;;;;;;;;;;26.06;47.90;100552.44;5054498;28;1967;-40
2021/06/18 02:29:11;;;;;;;;;;;;;;;26.08;47.72;100550.38;5055189;28;743;-40
2021/06/18 02:31:37;;;;;;;;;;;;;;;26.04;48.17;100550.75;5053897;28;952;-40
2021/06/18 02:34:02;;;;;;;;;;;;;;;25.99;48.33;100546.94;5055890;28;530;-40
2021/06/18 02:36:28;;;;;;;;;;;;;;;25.98;48.35;100550.63;5056018;28;807;-39
2021/06/18 02:38:53;;;;;;;;;;;;;;;26.01;48.37;100552.97;5055458;28;830;-33
2021/06/18 02:41:18;;;;;;;;;;;;;;;26.00;48.27;100554.00;5056099;28;834;-40
2021/06/18 02:43:44;;;;;;;;;;;;;;;26.02;48.16;100544.72;5056410;28;783;-33
2021/06/18 02:46:10;;;;;;;;;;;;;;;26.03;47.98;100543.69;5057709;28;1953;-40
2021/06/18 02:48:38;;;;;;;;;;;;;;;26.04;48.06;100534.56;5058345;28;1143;-39
2021/06/18 02:51:17;;;;;;;;;;;;;;;25.98;48.43;100531.75;5058278;28;760;-34
2021/06/18 02:53:53;;;;;;;;;;;;;;;26.05;48.18;100527.34;5058065;28;783;-33
2021/06/18 02:56:25;;;;;;;;;;;;;;;25.97;48.45;100528.25;5059395;28;759;-40
2021/06/18 02:58:52;;;;;;;;;;;;;;;25.79;49.41;100520.47;5059263;28;882;-38
2021/06/18 03:01:18;;;;;;;;;;;;;;;25.51;50.22;100511.00;5058674;28;982;-34
2021/06/18 03:03:43;;;;;;;;;;;;;;;25.51;50.40;100515.56;5058274;28;822;-36
2021/06/18 03:06:08;;;;;;;;;;;;;;;25.27;50.41;100520.06;5058050;28;2263;-37
2021/06/18 03:08:36;;;;;;;;;;;;;;;24.67;52.83;100517.75;5059048;28;828;-37
2021/06/18 03:11:01;;;;;;;;;;;;;;;24.29;54.42;100523.69;5059275;28;787;-37
2021/06/18 03:13:27;;;;;;;;;;;;;;;24.03;55.45;100520.13;5058852;28;1159;-35
2021/06/18 03:15:52;;;;;;;;;;;;;;;23.87;56.20;100531.72;5057349;28;1126;-35
2021/06/18 03:18:18;;;;;;;;;;;;;;;23.81;56.46;100527.84;5058991;28;1167;-37
2021/06/18 03:20:44;;;;;;;;;;;;;;;23.67;57.22;100520.44;5057720;28;799;-35
2021/06/18 03:23:10;;;;;;;;;;;;;;;23.54;57.73;100523.63;5057688;28;803;-36
2021/06/18 03:25:36;;;;;;;;;;;;;;;23.71;57.23;100521.78;5057703;28;752;-36
2021/06/18 03:28:01;;;;;;;;;;;;;;;23.68;57.22;100517.59;5057711;28;1913;-36
2021/06/18 03:30:27;;;;;;;;;;;;;;;23.72;57.21;100515.44;5058545;28;772;-36
2021/06/18 03:32:52;;;;;;;;;;;;;;;23.83;56.75;100514.25;5057734;28;944;-36
2021/06/18 03:35:19;;;;;;;;;;;;;;;23.68;57.46;100514.91;5057450;28;728;-36
2021/06/18 03:37:45;;;;;;;;;;;;;;;23.46;57.91;100514.53;5058875;28;760;-35
2021/06/18 03:40:10;;;;;;;;;;;;;;;23.32;58.75;100515.94;5057121;28;1409;-36
2021/06/18 03:42:36;;;;;;;;;;;;;;;23.45;58.33;100515.53;5057184;28;1309;-36
2021/06/18 03:45:01;;;;;;;;;;;;;;;23.52;58.42;100504.13;5056701;28;1425;-37
2021/06/18 03:47:27;;;;;;;;;;;;;;;23.66;57.63;100510.69;5051709;28;1913;-36
2021/06/18 03:49:52;;;;;;;;;;;;;;;23.64;57.80;100523.47;5038495;28;759;-37
2021/06/18 03:52:18;;;;;;;;;;;;;;;23.64;57.79;100516.22;5038392;28;812;-37
2021/06/18 03:54:43;;;;;;;;;;;;;;;23.65;57.92;100517.09;5038258;28;796;-39
2021/06/18 03:57:08;;;;;;;;;;;;;;;23.96;55.75;100524.50;5037209;28;787;-43
2021/06/18 03:59:34;;;;;;;;;;;;;;;24.05;53.13;100522.66;5038489;28;835;-34
2021/06/18 04:01:59;;;;;;;;;;;;;;;23.97;56.01;100528.88;5045162;28;951;-40
2021/06/18 04:04:25;;;;;;;;;;;;;;;24.27;54.91;100526.56;5057165;28;783;-42
2021/06/18 04:06:50;;;;;;;;;;;;;;;24.48;53.79;100529.69;5057897;28;1965;-35
2021/06/18 04:09:18;;;;;;;;;;;;;;;24.35;55.08;100531.06;5057009;28;775;-36
2021/06/18 04:11:45;;;;;;;;;;;;;;;24.02;56.63;100523.84;5055826;28;1434;-38
2021/06/18 04:14:11;;;;;;;;;;;;;;;23.87;57.31;100529.03;5057845;28;763;-35
2021/06/18 04:16:37;;;;;;;;;;;;;;;23.88;57.52;100530.72;5057654;28;1065;-35
2021/06/18 04:19:02;;;;;;;;;;;;;;;23.98;57.42;100527.88;5056986;28;953;-43
2021/06/18 04:21:27;;;;;;;;;;;;;;;24.55;53.63;100539.63;5056177;28;764;-39
2021/06/18 04:23:53;;;;;;;;;;;;;;;24.69;51.17;100530.00;5057777;28;771;-38
2021/06/18 04:26:23;;;;;;;;;;;;;;;24.75;49.91;100528.50;5057496;28;1970;-40
2021/06/18 04:28:48;;;;;;;;;;;;;;;24.80;48.91;100536.88;5057753;28;766;-40
2021/06/18 04:31:14;;;;;;;;;;;;;;;24.78;48.54;100538.06;5057331;28;951;-34
2021/06/18 04:33:39;;;;;;;;;;;;;;;24.76;48.35;100529.31;5057437;28;787;-39
2021/06/18 04:36:05;;;;;;;;;;;;;;;24.79;49.05;100526.28;5056803;28;811;-38
2021/06/18 04:38:30;;;;;;;;;;;;;;;24.90;49.33;100525.06;5057975;28;784;-40
2021/06/18 04:40:56;;;;;;;;;;;;;;;24.97;49.70;100528.78;5057192;28;825;-38
2021/06/18 04:43:21;;;;;;;;;;;;;;;25.03;49.62;100525.41;5057096;28;755;-34
2021/06/18 04:45:47;;;;;;;;;;;;;;;25.04;49.53;100531.63;5057365;28;835;-41
2021/06/18 04:48:12;;;;;;;;;;;;;;;25.09;49.03;100526.53;5057456;28;1898;-43
2021/06/18 04:50:38;;;;;;;;;;;;;;;25.06;48.53;100518.81;5056446;28;778;-34
2021/06/18 04:53:05;;;;;;;;;;;;;;;25.02;48.16;100520.19;5057126;28;787;-40
2021/06/18 04:55:30;;;;;;;;;;;;;;;25.00;47.91;100520.38;5057247;28;746;-42
2021/06/18 04:57:55;;;;;;;;;;;;;;;24.99;47.65;100523.22;5056986;28;780;-35
2021/06/18 05:00:24;;;;;;;;;;;;;;;25.05;47.10;100528.75;5057464;28;806;-42
2021/06/18 05:02:49;;;;;;;;;;;;;;;25.01;47.69;100535.47;5057018;28;951;-41
2021/06/18 05:05:15;;;;;;;;;;;;;;;25.10;48.03;100528.22;5038965;28;1527;-38
2021/06/18 05:07:40;;;;;;;;;;;;;;;25.11;48.48;100529.06;5056062;28;1894;-34
2021/06/18 05:10:06;;;;;;;;;;;;;;;25.23;48.52;100529.50;5057173;28;798;-41
2021/06/18 05:12:31;;;;;;;;;;;;;;;25.19;48.71;100524.47;5056672;28;1041;-35
2021/06/18 05:14:56;;;;;;;;;;;;;;;25.23;48.21;100526.81;5056882;28;744;-40
2021/06/18 05:17:21;;;;;;;;;;;;;;;25.22;47.24;100515.22;5056637;28;1069;-41
2021/06/18 05:19:47;;;;;;;;;;;;;;;25.10;47.03;100528.22;5056722;28;743;-42
2021/06/18 05:22:12;;;;;;;;;;;;;;;25.20;46.92;100525.31;5056434;28;799;-34
2021/06/18 05:24:37;;;;;;;;;;;;;;;25.41;46.80;100531.94;5056773;28;827;-43
2021/06/18 05:27:03;;;;;;;;;;;;;;;25.42;47.66;100533.63;5056262;28;1965;-43
2021/06/18 05:29:28;;;;;;;;;;;;;;;25.50;47.78;100544.34;5056334;28;811;-37
2021/06/18 05:31:54;;;;;;;;;;;;;;;25.48;47.80;100535.59;5056710;28;1029;-41
2021/06/18 05:34:19;;;;;;;;;;;;;;;25.51;48.22;100542.47;5056688;28;778;-35
2021/06/18 05:36:45;;;;;;;;;;;;;;;25.56;47.90;100534.72;5056409;28;922;-34
2021/06/18 05:39:11;;;;;;;;;;;;;;;25.50;48.54;100544.34;5056815;28;782;-41
2021/06/18 05:41:36;;;;;;;;;;;;;;;25.58;48.26;100538.06;5056470;28;831;-39
2021/06/18 05:44:01;;;;;;;;;;;;;;;25.56;48.60;100542.78;5056172;28;813;-40
2021/06/18 05:46:27;;;;;;;;;;;;;;;25.55;48.52;100554.59;5056178;28;1902;-41
2021/06/18 05:48:52;;;;;;;;;;;;;;;25.58;48.73;100554.22;5056662;28;739;-35
2021/06/18 05:51:17;;;;;;;;;;;;;;;25.57;48.98;100547.19;5055832;28;824;-35
2021/06/18 05:53:43;;;;;;;;;;;;;;;25.64;48.53;100544.66;5056519;28;925;-41
2021/06/18 05:56:08;;;;;;;;;;;;;;;25.67;48.41;100542.41;5056284;28;863;-42
2021/06/18 05:58:33;;;;;;;;;;;;;;;25.74;48.32;100549.81;5056036;28;775;-38
2021/06/18 06:00:58;;;;;;;;;;;;;;;26.00;47.72;100546.75;5056208;28;811;-38
2021/06/18 06:03:24;;;;;;;;;;;;;;;26.16;47.62;100551.16;5055505;28;935;-34
2021/06/18 06:05:49;;;;;;;;;;;;;;;26.22;47.19;100544.22;5055914;28;728;-38
2021/06/18 06:08:14;;;;;;;;;;;;;;;26.22;47.36;100535.28;5055743;28;1973;-38
2021/06/18 06:10:40;;;;;;;;;;;;;;;26.21;47.14;100522.84;5056306;28;937;-38
2021/06/18 06:13:05;;;;;;;;;;;;;;;26.25;47.05;100519.59;5055701;28;1056;-38
2021/06/18 06:15:31;;;;;;;;;;;;;;;26.27;47.08;100528.34;5055803;28;859;-37
2021/06/18 06:17:56;;;;;;;;;;;;;;;26.25;47.55;100527.66;5055580;28;1131;-37
2021/06/18 06:20:21;;;;;;;;;;;;;;;26.32;47.38;100524.25;5058988;28;751;-37
2021/06/18 06:22:47;;;;;;;;;;;;;;;26.35;47.15;100521.19;5060005;28;796;-38
2021/06/18 06:25:13;;;;;;;;;;;;;;;26.37;47.02;100530.81;5060248;28;767;-38
2021/06/18 06:27:38;;;;;;;;;;;;;;;26.33;47.21;100529.47;5058637;28;1921;-38
2021/06/18 06:30:04;;;;;;;;;;;;;;;26.34;47.22;100525.75;5060038;28;743;-38
2021/06/18 06:32:29;;;;;;;;;;;;;;;26.40;47.01;100533.13;5059988;28;1006;-38
2021/06/18 06:34:55;;;;;;;;;;;;;;;26.46;46.75;100536.94;5059680;28;780;-34
2021/06/18 06:37:20;;;;;;;;;;;;;;;26.44;46.90;100527.38;5059525;28;890;-34
2021/06/18 06:39:45;;;;;;;;;;;;;;;26.44;47.17;100536.31;5059987;28;730;-37
2021/06/18 06:42:10;;;;;;;;;;;;;;;26.45;46.92;100537.97;5059542;28;870;-37
2021/06/18 06:44:36;;;;;;;;;;;;;;;26.41;47.06;100524.00;5059817;28;791;-37
2021/06/18 06:47:01;;;;;;;;;;;;;;;26.48;46.99;100520.56;5059498;28;1918;-37
2021/06/18 06:49:26;;;;;;;;;;;;;;;26.47;46.90;100518.91;5059158;28;724;-37
2021/06/18 06:51:52;;;;;;;;;;;;;;;26.43;46.97;100510.34;5059803;28;819;-37
2021/06/18 06:54:17;;;;;;;;;;;;;;;26.45;47.07;100513.69;5059429;28;900;-35
2021/06/18 06:56:42;;;;;;;;;;;;;;;26.43;47.15;100510.34;5059431;28;803;-34
2021/06/18 06:59:08;;;;;;;;;;;;;;;26.48;47.08;100512.47;5059564;28;825;-37
2021/06/18 07:01:33;;;;;;;;;;;;;;;26.49;47.05;100508.78;5059191;28;1003;-38
2021/06/18 07:04:00;;;;;;;;;;;;;;;26.50;47.31;100511.28;5058773;28;835;-37
2021/06/18 07:06:25;;;;;;;;;;;;;;;26.49;47.41;100516.88;5059330;28;1909;-37
2021/06/18 07:08:51;;;;;;;;;;;;;;;26.48;47.26;100516.00;5059442;28;827;-38
2021/06/18 07:11:16;;;;;;;;;;;;;;;26.49;47.26;100520.38;5058995;28;1049;-34
2021/06/18 07:13:41;;;;;;;;;;;;;;;26.48;47.33;100513.31;5059096;28;795;-38
2021/06/18 07:16:08;;;;;;;;;;;;;;;26.50;47.59;100524.78;5059134;28;1067;-38
2021/06/18 07:18:35;;;;;;;;;;;;;;;26.51;47.31;100517.50;5038430;28;1010;-33
2021/06/18 07:21:00;;;;;;;;;;;;;;;26.31;49.46;100515.31;5039515;28;798;-38
2021/06/18 07:23:25;;;;;;;;;;;;;;;26.19;49.03;100517.63;5038984;28;866;-38
2021/06/18 07:25:51;;;;;;;;;;;;;;;26.78;61.92;100524.13;5039020;28;775;-33
2021/06/18 07:28:16;;;;;;;;;;;;;;;26.54;54.34;100517.16;5038841;28;1963;-40
2021/06/18 07:30:41;;;;;;;;;;;;;;;26.56;53.23;100515.09;5038298;28;747;-38
2021/06/18 07:33:07;;;;;;;;;;;;;;;26.34;54.24;100514.16;5054748;28;1025;-33
2021/06/18 07:35:32;;;;;;;;;;;;;;;26.27;54.57;100514.00;5058513;28;834;-38
2021/06/18 07:37:58;;;;;;;;;;;;;;;26.73;51.30;100518.44;5058512;28;814;-38
2021/06/18 07:40:23;;;;;;;;;;;;;;;26.86;50.78;100516.97;5058736;28;759;-35
2021/06/18 07:42:49;;;;;;;;;;;;;;;26.71;52.47;100520.50;5058519;28;810;-39
2021/06/18 07:45:14;;;;;;;;;;;;;;;26.57;53.72;100516.78;5058102;28;838;-39
2021/06/18 07:47:40;;;;;;;;;;;;;;;26.17;53.40;100511.56;5057920;28;1897;-37
2021/06/18 07:50:12;;;;;;;;;;;;;;;26.15;51.50;100511.75;5058246;28;760;-39
2021/06/18 07:52:37;;;;;;;;;;;;;;;26.11;47.41;100505.03;5058086;28;894;-40
2021/06/18 07:55:03;;;;;;;;;;;;;;;25.99;48.49;100518.09;5058370;28;822;-39
2021/06/18 07:57:28;;;;;;;;;;;;;;;25.60;51.15;100505.56;5057759;28;791;-40
2021/06/18 07:59:54;;;;;;;;;;;;;;;25.80;49.36;100511.34;5058500;28;764;-39
2021/06/18 08:02:19;;;;;;;;;;;;;;;26.31;48.71;100506.41;5058327;28;947;-38
2021/06/18 08:04:44;;;;;;;;;;;;;;;26.24;48.73;100503.59;5057468;28;846;-39
2021/06/18 08:07:10;;;;;;;;;;;;;;;26.10;50.83;100502.53;5057762;28;1909;-39
2021/06/18 08:09:35;;;;;;;;;;;;;;;25.97;50.68;100505.84;5058208;28;830;-38
2021/06/18 08:12:00;;;;;;;;;;;;;;;25.97;51.23;100511.22;5057785;28;1076;-38
2021/06/18 08:14:27;;;;;;;;;;;;;;;25.87;51.67;100508.78;5057795;28;807;-38
2021/06/18 08:16:52;;;;;;;;;;;;;;;26.43;48.96;100509.47;5057472;28;1167;-38
2021/06/18 08:19:17;;;;;;;;;;;;;;;26.27;51.02;100514.00;5057289;28;1153;-37
2021/06/18 08:21:43;;;;;;;;;;;;;;;25.97;51.94;100514.78;5057606;28;878;-39
2021/06/18 08:24:08;;;;;;;;;;;;;;;25.94;51.93;100507.06;5057730;28;774;-37
2021/06/18 08:26:33;;;;;;;;;;;;;;;25.85;52.11;100508.13;5057528;28;1910;-38
2021/06/18 08:28:58;;;;;;;;;;;;;;;25.77;52.34;100501.78;5058085;28;767;-38
2021/06/18 08:31:24;;;;;;;;;;;;;;;25.89;51.63;100504.06;5057600;28;1006;-38
2021/06/18 08:33:50;;;;;;;;;;;;;;;26.72;52.12;100500.59;5057229;28;890;-38
2021/06/18 08:36:15;;;;;;;;;;;;;;;26.47;49.84;100503.56;5057192;28;827;-38
2021/06/18 08:38:43;;;;;;;;;;;;;;;26.25;50.97;100506.09;5057801;28;878;-39
2021/06/18 08:41:08;;;;;;;;;;;;;;;26.11;50.93;100506.91;5056941;28;855;-37
2021/06/18 08:43:34;;;;;;;;;;;;;;;26.09;51.42;100503.56;5057487;28;752;-38
2021/06/18 08:46:01;;;;;;;;;;;;;;;25.95;51.36;100510.56;5055700;28;868;-38
2021/06/18 08:48:27;;;;;;;;;;;;;;;25.88;51.95;100514.00;5056624;28;1898;-38
2021/06/18 08:50:53;;;;;;;;;;;;;;;25.97;51.53;100512.06;5057476;28;752;-38
2021/06/18 08:53:18;;;;;;;;;;;;;;;26.02;51.09;100514.22;5055956;28;887;-37
2021/06/18 08:55:44;;;;;;;;;;;;;;;26.13;50.48;100504.84;5055390;28;756;-40
2021/06/18 08:58:09;;;;;;;;;;;;;;;26.12;50.85;100506.72;5055820;28;840;-38
2021/06/18 09:00:34;;;;;;;;;;;;;;;26.06;50.99;100498.53;5057335;28;799;-39
2021/06/18 09:03:00;;;;;;;;;;;;;;;26.16;51.04;100491.00;5056416;28;939;-38
2021/06/18 09:05:25;;;;;;;;;;;;;;;26.12;51.04;100492.41;5056851;28;780;-39
2021/06/18 09:07:50;;;;;;;;;;;;;;;26.01;51.17;100486.44;5057100;28;1961;-39
2021/06/18 09:10:22;;;;;;;;;;;;;;;25.97;51.52;100490.53;5056570;28;835;-38
2021/06/18 09:13:06;;;;;;;;;;;;;;;26.02;51.18;100498.91;5056981;28;1104;-39
2021/06/18 09:15:31;;;;;;;;;;;;;;;26.09;51.21;100490.06;5056672;28;826;-39
2021/06/18 09:17:57;;;;;;;;;;;;;;;26.07;51.24;100492.97;5055895;28;1045;-39
2021/06/18 09:20:25;;;;;;;;;;;;;;;26.02;51.24;100480.03;5057005;28;849;-39
2021/06/18 09:22:50;;;;;;;;;;;;;;;26.09;51.10;100485.50;5056873;28;764;-39
2021/06/18 09:25:16;;;;;;;;;;;;;;;26.11;51.17;100474.56;5056196;28;755;-39
2021/06/18 09:27:41;;;;;;;;;;;;;;;26.22;50.78;100475.97;5056241;28;1914;-38
2021/06/18 09:30:23;;;;;;;;;;;;;;;26.31;50.68;100471.34;5057025;28;790;-39
2021/06/18 09:32:58;;;;;;;;;;;;;;;26.27;50.55;100471.72;5054881;28;1121;-38
2021/06/18 09:35:23;;;;;;;;;;;;;;;26.29;50.65;100476.91;5056666;28;783;-38
2021/06/18 09:37:52;;;;;;;;;;;;;;;26.29;50.79;100472.34;5056455;28;752;-38
2021/06/18 09:40:19;;;;;;;;;;;;;;;26.37;50.42;100468.78;5056384;28;764;-38
2021/06/18 09:42:45;;;;;;;;;;;;;;;26.40;50.05;100462.16;5056222;28;815;-38
2021/06/18 09:45:14;;;;;;;;;;;;;;;26.45;50.07;100462.44;5056380;28;806;-38
2021/06/18 09:47:39;;;;;;;;;;;;;;;26.64;49.47;100463.72;5055755;28;1913;-39
2021/06/18 09:50:05;;;;;;;;;;;;;;;26.49;49.88;100465.63;5056683;28;779;-39
2021/06/18 09:52:31;;;;;;;;;;;;;;;26.49;50.03;100457.53;5056687;28;803;-38
2021/06/18 09:54:58;;;;;;;;;;;;;;;26.43;49.99;100456.41;5055614;28;906;-39
2021/06/18 09:57:24;;;;;;;;;;;;;;;26.43;49.94;100458.25;5056170;28;839;-38
2021/06/18 09:59:55;;;;;;;;;;;;;;;26.41;50.07;100456.59;5056036;28;808;-38
2021/06/18 10:02:21;;;;;;;;;;;;;;;26.44;50.21;100458.09;5055841;28;963;-38
2021/06/18 10:04:48;;;;;;;;;;;;;;;26.42;50.25;100454.72;5056209;28;756;-38
2021/06/18 10:07:13;;;;;;;;;;;;;;;26.37;50.28;100459.84;5056073;28;1963;-38
2021/06/18 10:09:39;;;;;;;;;;;;;;;26.38;50.29;100451.56;5054731;28;755;-39
2021/06/18 10:12:05;;;;;;;;;;;;;;;26.40;49.95;100445.97;5056200;28;1103;-38
2021/06/18 10:14:31;;;;;;;;;;;;;;;26.49;49.96;100446.72;5055876;28;922;-39
2021/06/18 10:16:56;;;;;;;;;;;;;;;26.47;49.85;100443.38;5055585;28;1056;-38
2021/06/18 10:19:22;;;;;;;;;;;;;;;26.47;49.78;100440.69;5055743;28;902;-38
2021/06/18 10:22:06;;;;;;;;;;;;;;;26.49;49.82;100441.34;5056188;28;825;-39
2021/06/18 10:24:38;;;;;;;;;;;;;;;26.51;49.73;100439.28;5054426;28;823;-39
2021/06/18 10:27:04;;;;;;;;;;;;;;;26.56;49.34;100434.16;5055768;28;1914;-40
2021/06/18 10:29:33;;;;;;;;;;;;;;;26.60;49.26;100431.94;5054855;28;1246;-40
2021/06/18 10:32:17;;;;;;;;;;;;;;;26.70;48.73;100432.47;5055384;28;1033;-40
2021/06/18 10:34:43;;;;;;;;;;;;;;;26.60;49.20;100427.38;5055940;28;905;-38
2021/06/18 10:37:21;;;;;;;;;;;;;;;26.60;47.91;100424.69;5055953;28;763;-38
2021/06/18 10:39:53;;;;;;;;;;;;;;;26.59;48.37;100422.16;5055573;28;818;-39
2021/06/18 10:42:18;;;;;;;;;;;;;;;26.58;48.59;100423.19;5056170;28;730;-39
2021/06/18 10:44:44;;;;;;;;;;;;;;;26.55;48.64;100428.94;5055623;28;859;-40
2021/06/18 10:47:22;;;;;;;;;;;;;;;26.57;48.70;100435.00;5054912;28;1914;-38
2021/06/18 10:49:47;;;;;;;;;;;;;;;26.62;47.99;100425.34;5055885;28;740;-39
2021/06/18 10:52:15;;;;;;;;;;;;;;;26.57;46.83;100430.44;5055973;28;783;-38
2021/06/18 10:54:46;;;;;;;;;;;;;;;26.52;46.33;100425.63;5055337;28;790;-41
2021/06/18 10:57:12;;;;;;;;;;;;;;;26.69;46.88;100438.91;5055455;28;831;-42
2021/06/18 10:59:47;;;;;;;;;;;;;;;26.75;47.24;100438.16;5055598;28;821;-39
2021/06/18 11:02:26;;;;;;;;;;;;;;;26.68;47.70;100447.16;5055169;28;951;-39
2021/06/18 11:04:57;;;;;;;;;;;;;;;26.57;47.89;100443.94;5055420;28;845;-38
2021/06/18 11:07:27;;;;;;;;;;;;;;;26.49;48.07;100452.94;5058254;28;1936;-37
2021/06/18 11:09:56;;;;;;;;;;;;;;;26.48;48.23;100450.44;5057882;28;1186;-37
2021/06/18 11:12:24;;;;;;;;;;;;;;;26.48;48.56;100455.84;5059158;28;1099;-36
2021/06/18 11:14:59;;;;;;;;;;;;;;;26.52;48.28;100452.59;5058793;28;826;-36
2021/06/18 11:17:37;;;;;;;;;;;;;;;26.57;48.13;100456.59;5058506;28;1036;-37
2021/06/18 11:20:06;;;;;;;;;;;;;;;26.57;48.05;100452.03;5059312;28;750;-37
2021/06/18 11:22:37;;;;;;;;;;;;;;;26.69;47.67;100448.84;5059392;28;735;-36
2021/06/18 11:25:03;;;;;;;;;;;;;;;26.73;47.68;100448.28;5058354;28;818;-37
2021/06/18 11:27:30;;;;;;;;;;;;;;;26.76;47.60;100438.97;5057897;28;1914;-37
2021/06/18 11:30:14;;;;;;;;;;;;;;;26.88;47.17;100442.03;5058637;28;911;-37
2021/06/18 11:32:40;;;;;;;;;;;;;;;26.80;47.77;100434.03;5058768;28;978;-37
2021/06/18 11:35:24;;;;;;;;;;;;;;;26.86;47.19;100430.59;5058683;28;724;-37
2021/06/18 11:37:49;;;;;;;;;;;;;;;26.80;47.41;100428.63;5058459;28;799;-36
2021/06/18 11:40:15;;;;;;;;;;;;;;;26.76;47.53;100425.47;5057530;28;745;-37
2021/06/18 11:42:40;;;;;;;;;;;;;;;26.78;47.64;100428.84;5058672;28;862;-37
2021/06/18 11:45:05;;;;;;;;;;;;;;;26.73;47.60;100423.16;5056719;28;1082;-37
2021/06/18 11:47:34;;;;;;;;;;;;;;;26.73;47.51;100417.75;5058061;28;1914;-37
2021/06/18 11:49:59;;;;;;;;;;;;;;;26.74;47.49;100422.97;5058608;28;746;-37
2021/06/18 11:52:24;;;;;;;;;;;;;;;26.73;47.75;100418.59;5058396;28;803;-37
2021/06/18 11:54:50;;;;;;;;;;;;;;;26.69;47.74;100413.78;5056852;28;1144;-37
2021/06/18 11:57:20;;;;;;;;;;;;;;;26.75;47.65;100423.81;5057298;28;715;-37
2021/06/18 11:59:52;;;;;;;;;;;;;;;26.65;47.69;100422.25;5058361;28;787;-37
2021/06/18 12:02:26;;;;;;;;;;;;;;;26.68;48.08;100415.63;5056967;28;1006;-37
2021/06/18 12:05:07;;;;;;;;;;;;;;;26.76;47.68;100412.84;5058298;28;815;-37
2021/06/18 12:07:32;;;;;;;;;;;;;;;26.75;47.92;100407.63;5057973;28;1961;-37
2021/06/18 12:09:58;;;;;;;;;;;;;;;26.77;47.63;100403.72;5058146;28;720;-36
2021/06/18 12:12:23;;;;;;;;;;;;;;;26.84;47.68;100405.66;5058221;28;1092;-36
2021/06/18 12:14:55;;;;;;;;;;;;;;;26.92;47.37;100405.56;5057380;28;787;-37
2021/06/18 12:17:20;;;;;;;;;;;;;;;26.95;47.07;100401.63;5057263;28;1334;-38
2021/06/18 12:19:48;;;;;;;;;;;;;;;26.93;47.31;100403.66;5057928;28;1094;-38
2021/06/18 12:22:14;;;;;;;;;;;;;;;26.94;47.23;100400.81;5056507;28;851;-37
2021/06/18 12:24:39;;;;;;;;;;;;;;;27.05;46.96;100396.78;5057867;28;779;-38
2021/06/18 12:27:08;;;;;;;;;;;;;;;27.08;47.03;100401.81;5057632;28;1909;-37
2021/06/18 12:29:36;;;;;;;;;;;;;;;27.06;46.60;100403.84;5057185;28;764;-37
2021/06/18 12:32:01;;;;;;;;;;;;;;;27.12;46.81;100397.72;5056493;28;967;-37
2021/06/18 12:34:28;;;;;;;;;;;;;;;27.19;46.81;100395.06;5057987;28;720;-37
2021/06/18 12:36:57;;;;;;;;;;;;;;;27.18;46.64;100392.53;5057490;28;755;-37
2021/06/18 12:39:22;;;;;;;;;;;;;;;27.24;46.43;100386.41;5057922;28;899;-37
2021/06/18 12:41:48;;;;;;;;;;;;;;;27.08;46.95;100401.81;5057787;28;811;-38
2021/06/18 12:44:14;;;;;;;;;;;;;;;27.16;46.46;100394.63;5057371;28;731;-36
2021/06/18 12:46:39;;;;;;;;;;;;;;;27.18;46.46;100387.13;5057348;28;1940;-37
2021/06/18 12:49:08;;;;;;;;;;;;;;;27.20;46.40;100383.25;5056240;28;780;-36
2021/06/18 12:51:33;;;;;;;;;;;;;;;27.26;46.48;100381.63;5057395;28;739;-37
2021/06/18 12:54:03;;;;;;;;;;;;;;;27.28;46.36;100376.06;5057502;28;787;-36